^^
LKKV - Karlovy Vary, Czech Republic
Entfernung von Station: O 36km
Aktualisierung: 26.04.2018 02:00
stark bewölkt
stark bewölkt
 Wind von veränderlich
Wind: veränderlich 4 km/h
Temperatur: 9°C
Taupunkt: 6°C
Luftfeuchte: 82%
Luftdruck: 1013 hPa
Wolken: stark bewölkt
Sicht: 10 km
Wolken Details: wolkig 701 m
stark bewölkt 1219 m
2018/04/26 00:00 LKKV 260000Z VRB02KT 9999 SCT023 BKN040 09/06 Q1013
EDQM - Hof, Germany
Entfernung von Station: W 40km
Aktualisierung: 25.04.2018 19:50
nicht aktuell
stark bewölkt
stark bewölkt
 Wind von veränderlich
Wind: veränderlich 11 km/h
Temperatur: 11°C
Taupunkt: 7°C
Luftfeuchte: 77%
Luftdruck: 1012 hPa
Wolken: stark bewölkt
Sicht: 10 km
Wolken Details: teils wolkig 610 m
wolkig 1554 m
stark bewölkt 2134 m
2018/04/25 17:50 EDQM 251750Z VRB06KT 9999 FEW020 SCT051 BKN070 11/07 Q1012
 
ETIC - Grafenwoehr, Germany
Entfernung von Station: SSW 72km
Aktualisierung: 26.04.2018 01:56
Bedeckt
Bedeckt
 Wind von W
Wind: W 9 km/h
Temperatur: 11°C
Taupunkt: 8°C
Luftfeuchte: 82%
Wolken: Bedeckt
Sicht: 10 km
Wolken Details: Bedeckt 1981 m
2018/04/25 23:56 ETIC 252356Z AUTO 27005KT 9999 OVC065 11/08 M RMK AO2 SLPNO 60000 T01130076 10166 20098 $
EDAC - Altenburg-Nobitz, Germany
Entfernung von Station: N 80km
Aktualisierung: 25.04.2018 20:20
nicht aktuell
stark bewölkt
stark bewölkt
 Wind von SSW
Wind: SSW 13 km/h
Temperatur: 12°C
Taupunkt: 9°C
Luftfeuchte: 82%
Luftdruck: 1011 hPa
Wolken: stark bewölkt
Sicht: 10 km
Wolken Details: teils wolkig 762 m
wolkig 1554 m
stark bewölkt 2225 m
2018/04/25 18:20 EDAC 251820Z 21007KT 9999 FEW025 SCT051 BKN073 12/09 Q1011
 
LKLN - Plzen Line, Czech Republic
Entfernung von Station: SO 88km
Aktualisierung: 26.04.2018 01:00
stark bewölkt
stark bewölkt
 Wind von W
Wind: W 9 km/h
Temperatur: 13°C
Taupunkt: 6°C
Luftfeuchte: 63%
Luftdruck: 1014 hPa
Wolken: stark bewölkt
Sicht: 10 km
Wolken Details: stark bewölkt 1280 m
stark bewölkt 1463 m
2018/04/25 23:00 LKLN 252300Z AUTO 28005KT 250V310 9999 BKN042 BKN048 13/06 Q1014
ETIH - Hohenfels (usa-A, Germany
Entfernung von Station: SSW 124km
Aktualisierung: 26.04.2018 01:56
Bedeckt
Bedeckt
 Wind von calm
Wind: Windstill
Temperatur: 11°C
Taupunkt: 8°C
Luftfeuchte: 82%
Luftdruck: 1015.2 hPa
Wolken: Bedeckt
Sicht: 10 km
Wolken Details: Bedeckt 1463 m
2018/04/25 23:56 ETIH 252356Z AUTO 00000KT 9999 OVC048 11/08 A2998 RMK AO2 SLP146 T01090083 10170 20095 52012 $
 
EDDE - Erfurt/Bindersleben, Germany
Entfernung von Station: NW 129km
Aktualisierung: 26.04.2018 01:50
Klar
Klar
 Wind von SSW
Wind: SSW 7 km/h
Temperatur: 8°C
Windkühle: 7°C
Taupunkt: 7°C
Luftfeuchte: 93%
Luftdruck: 1013 hPa
Zusammenfassung: Klar
Sicht: mehr als 10 km
2018/04/25 23:50 EDDE 252350Z 21004KT CAVOK 08/07 Q1013
EDDP - Leipzig/Schkeudidtz, Germany
Entfernung von Station: N 129km
Aktualisierung: 26.04.2018 01:50
Klar
Klar
 Wind von SW
Wind: SW 11 km/h
Temperatur: 8°C
Windkühle: 6°C
Taupunkt: 6°C
Luftfeuchte: 87%
Luftdruck: 1012 hPa
Zusammenfassung: Klar
Sicht: mehr als 10 km
2018/04/25 23:50 EDDP 252350Z 22006KT CAVOK 08/06 Q1012 NOSIG
 
EDDN - Nuernberg, Germany
Entfernung von Station: SW 130km
Aktualisierung: 26.04.2018 01:50
leichter Regen, Schauer, stark bewölkt
leichter Regen, Schauer, stark bewölkt
 Wind von WSW
Wind: WSW 15 km/h
Temperatur: 13°C
Taupunkt: 7°C
Luftfeuchte: 67%
Luftdruck: 1014 hPa
Zusammenfassung: leichter Regen, Schauer
Wolken: stark bewölkt
Sicht: 10 km
Wolken Details: wolkig 1006 m
stark bewölkt 1524 m
2018/04/25 23:50 EDDN 252350Z 24008KT 210V270 9999 -SHRA SCT033 BKN050 13/07 Q1014
LKPR - Prague/Ruzyne, Czech Republic
Entfernung von Station: O 133km
Aktualisierung: 26.04.2018 02:00
Klar
Klar
 Wind von SW
Wind: SW 15 km/h
Temperatur: 11°C
Taupunkt: 8°C
Luftfeuchte: 82%
Luftdruck: 1013 hPa
Zusammenfassung: Klar
Sicht: mehr als 10 km
2018/04/26 00:00 LKPR 260000Z 22008KT CAVOK 11/08 Q1013 NOSIG
 
EDDC - Dresden/Klotzsche, Germany
Entfernung von Station: NO 134km
Aktualisierung: 26.04.2018 01:50
stark bewölkt
stark bewölkt
 Wind von SW
Wind: SW 6 km/h
Temperatur: 10°C
Taupunkt: 8°C
Luftfeuchte: 88%
Luftdruck: 1012 hPa
Wolken: stark bewölkt
Sicht: 10 km
Wolken Details: teils wolkig 671 m
wolkig 1097 m
stark bewölkt 1402 m
2018/04/25 23:50 EDDC 252350Z 23003KT 190V270 9999 FEW022 SCT036 BKN046 10/08 Q1012
Besucherstatistik
Besucher gesamt: 1.005.869
Besucher heute: 21
Besucher gestern: 708
gerade online: 12
Seitenaufrufe diese Seite: 3.306
counter Statistiken